Terminal Aerodrome Forecast
Issued by NWS Blacksburg, VA

Current Version | Previous Version | Text Only | Print | Product List | Glossary Off
Versions: 1 2 3 4 5 6 7 8 9 10 11 12 13 14 15 16 17 18 19 20 21 22 23 24 25 26 27 28 29 30 31 32 33 34 35 36 37 38 39 40 41 42 43 44 45 46 47

000
FTUS41 KRNK 202010 AAA
TAFBLF
TAF AMD
KBLF 202010Z 2020/2118 29005KT P6SM BKN007 OVC012
      TEMPO 2020/2023 3SM -SN BR
     FM210200 27003KT 5SM BR OVC010
     FM210900 25002KT 1/2SM FG OVC002
     FM211400 23005KT P6SM BKN025=

USA.gov is the U.S. government's official web portal to all federal, state and local government web resources and services.